sensor_id;sensor_type;location;lat;lon;timestamp;P1;durP1;ratioP1;P2;durP2;ratioP2
55537;SDS011;41383;51.418;7.286;2023-01-24T00:00:34;14.05;;;8.98;;
55537;SDS011;41383;51.418;7.286;2023-01-24T00:02:59;15.32;;;8.15;;
55537;SDS011;41383;51.418;7.286;2023-01-24T00:05:24;18.87;;;8.27;;
55537;SDS011;41383;51.418;7.286;2023-01-24T00:07:50;17.80;;;8.80;;
55537;SDS011;41383;51.418;7.286;2023-01-24T00:10:15;13.90;;;8.18;;
55537;SDS011;41383;51.418;7.286;2023-01-24T00:12:40;14.68;;;6.97;;
55537;SDS011;41383;51.418;7.286;2023-01-24T00:15:06;16.02;;;7.85;;
55537;SDS011;41383;51.418;7.286;2023-01-24T00:17:32;15.50;;;8.23;;
55537;SDS011;41383;51.418;7.286;2023-01-24T00:19:57;16.92;;;7.22;;
55537;SDS011;41383;51.418;7.286;2023-01-24T00:22:22;12.40;;;7.82;;
55537;SDS011;41383;51.418;7.286;2023-01-24T00:24:48;15.05;;;8.43;;
55537;SDS011;41383;51.418;7.286;2023-01-24T00:27:13;14.32;;;6.30;;
55537;SDS011;41383;51.418;7.286;2023-01-24T00:29:39;13.02;;;7.15;;
55537;SDS011;41383;51.418;7.286;2023-01-24T00:32:05;12.60;;;6.10;;
55537;SDS011;41383;51.418;7.286;2023-01-24T00:34:30;13.83;;;7.47;;
55537;SDS011;41383;51.418;7.286;2023-01-24T00:36:55;12.20;;;5.68;;
55537;SDS011;41383;51.418;7.286;2023-01-24T00:39:20;14.97;;;8.87;;
55537;SDS011;41383;51.418;7.286;2023-01-24T00:41:46;13.82;;;7.35;;
55537;SDS011;41383;51.418;7.286;2023-01-24T00:44:11;12.90;;;5.63;;
55537;SDS011;41383;51.418;7.286;2023-01-24T00:46:36;13.68;;;6.75;;
55537;SDS011;41383;51.418;7.286;2023-01-24T00:49:02;12.60;;;6.38;;
55537;SDS011;41383;51.418;7.286;2023-01-24T00:51:27;14.10;;;6.43;;
55537;SDS011;41383;51.418;7.286;2023-01-24T00:53:52;14.23;;;6.67;;
55537;SDS011;41383;51.418;7.286;2023-01-24T00:56:18;11.70;;;6.37;;
55537;SDS011;41383;51.418;7.286;2023-01-24T00:58:43;11.43;;;7.03;;
55537;SDS011;41383;51.418;7.286;2023-01-24T01:01:09;22.40;;;7.27;;
55537;SDS011;41383;51.418;7.286;2023-01-24T01:03:35;11.95;;;5.97;;
55537;SDS011;41383;51.418;7.286;2023-01-24T01:06:07;13.23;;;5.95;;
55537;SDS011;41383;51.418;7.286;2023-01-24T01:08:36;11.93;;;5.80;;
55537;SDS011;41383;51.418;7.286;2023-01-24T01:11:02;10.10;;;6.25;;
55537;SDS011;41383;51.418;7.286;2023-01-24T01:13:27;10.47;;;5.63;;
55537;SDS011;41383;51.418;7.286;2023-01-24T01:15:59;11.77;;;5.90;;
55537;SDS011;41383;51.418;7.286;2023-01-24T01:18:28;12.25;;;6.45;;
55537;SDS011;41383;51.418;7.286;2023-01-24T01:20:54;9.95;;;4.72;;
55537;SDS011;41383;51.418;7.286;2023-01-24T01:23:19;8.33;;;4.07;;
55537;SDS011;41383;51.418;7.286;2023-01-24T01:25:44;9.90;;;5.33;;
55537;SDS011;41383;51.418;7.286;2023-01-24T01:28:09;8.97;;;5.00;;
55537;SDS011;41383;51.418;7.286;2023-01-24T01:30:35;8.05;;;4.38;;
55537;SDS011;41383;51.418;7.286;2023-01-24T01:33:00;9.87;;;4.57;;
55537;SDS011;41383;51.418;7.286;2023-01-24T01:35:25;11.15;;;5.15;;
55537;SDS011;41383;51.418;7.286;2023-01-24T01:37:50;10.00;;;4.05;;
55537;SDS011;41383;51.418;7.286;2023-01-24T01:40:17;7.47;;;4.00;;
55537;SDS011;41383;51.418;7.286;2023-01-24T01:42:50;9.38;;;5.03;;
55537;SDS011;41383;51.418;7.286;2023-01-24T01:45:38;9.50;;;4.85;;
55537;SDS011;41383;51.418;7.286;2023-01-24T01:48:24;8.93;;;4.88;;
55537;SDS011;41383;51.418;7.286;2023-01-24T01:51:00;9.05;;;3.95;;
55537;SDS011;41383;51.418;7.286;2023-01-24T01:53:27;10.40;;;5.55;;
55537;SDS011;41383;51.418;7.286;2023-01-24T01:56:01;9.30;;;4.00;;
55537;SDS011;41383;51.418;7.286;2023-01-24T01:58:35;8.00;;;4.05;;
55537;SDS011;41383;51.418;7.286;2023-01-24T02:01:02;10.18;;;5.18;;
55537;SDS011;41383;51.418;7.286;2023-01-24T02:03:33;9.43;;;4.05;;
55537;SDS011;41383;51.418;7.286;2023-01-24T02:06:13;12.00;;;5.28;;
55537;SDS011;41383;51.418;7.286;2023-01-24T02:08:46;13.05;;;4.60;;
55537;SDS011;41383;51.418;7.286;2023-01-24T02:11:14;8.90;;;4.18;;
55537;SDS011;41383;51.418;7.286;2023-01-24T02:13:59;10.60;;;4.85;;
55537;SDS011;41383;51.418;7.286;2023-01-24T02:16:44;7.03;;;3.80;;
55537;SDS011;41383;51.418;7.286;2023-01-24T02:19:10;8.18;;;4.28;;
55537;SDS011;41383;51.418;7.286;2023-01-24T02:21:48;8.23;;;4.00;;
55537;SDS011;41383;51.418;7.286;2023-01-24T02:24:25;8.10;;;4.07;;
55537;SDS011;41383;51.418;7.286;2023-01-24T02:26:58;12.77;;;5.43;;
55537;SDS011;41383;51.418;7.286;2023-01-24T02:29:23;9.30;;;4.78;;
55537;SDS011;41383;51.418;7.286;2023-01-24T02:31:59;11.05;;;5.68;;
55537;SDS011;41383;51.418;7.286;2023-01-24T02:34:26;8.52;;;4.53;;
55537;SDS011;41383;51.418;7.286;2023-01-24T02:36:54;8.77;;;5.68;;
55537;SDS011;41383;51.418;7.286;2023-01-24T02:39:24;11.57;;;4.50;;
55537;SDS011;41383;51.418;7.286;2023-01-24T02:41:55;9.52;;;4.43;;
55537;SDS011;41383;51.418;7.286;2023-01-24T02:44:40;14.63;;;6.32;;
55537;SDS011;41383;51.418;7.286;2023-01-24T02:47:12;9.32;;;3.70;;
55537;SDS011;41383;51.418;7.286;2023-01-24T02:49:37;9.55;;;4.95;;
55537;SDS011;41383;51.418;7.286;2023-01-24T02:52:02;9.37;;;4.20;;
55537;SDS011;41383;51.418;7.286;2023-01-24T02:54:46;8.98;;;4.63;;
55537;SDS011;41383;51.418;7.286;2023-01-24T02:57:12;11.02;;;5.65;;
55537;SDS011;41383;51.418;7.286;2023-01-24T02:59:55;9.37;;;4.27;;
55537;SDS011;41383;51.418;7.286;2023-01-24T03:02:20;8.83;;;4.93;;
55537;SDS011;41383;51.418;7.286;2023-01-24T03:04:46;8.88;;;4.50;;
55537;SDS011;41383;51.418;7.286;2023-01-24T03:07:11;11.20;;;4.40;;
55537;SDS011;41383;51.418;7.286;2023-01-24T03:09:36;9.85;;;4.47;;
55537;SDS011;41383;51.418;7.286;2023-01-24T03:12:04;13.27;;;5.07;;
55537;SDS011;41383;51.418;7.286;2023-01-24T03:14:49;12.27;;;6.65;;
55537;SDS011;41383;51.418;7.286;2023-01-24T03:17:33;9.85;;;4.35;;
55537;SDS011;41383;51.418;7.286;2023-01-24T03:20:17;9.95;;;3.83;;
55537;SDS011;41383;51.418;7.286;2023-01-24T03:23:01;9.27;;;4.32;;
55537;SDS011;41383;51.418;7.286;2023-01-24T03:25:45;8.82;;;4.10;;
55537;SDS011;41383;51.418;7.286;2023-01-24T03:28:29;9.23;;;4.57;;
55537;SDS011;41383;51.418;7.286;2023-01-24T03:31:13;9.68;;;4.43;;
55537;SDS011;41383;51.418;7.286;2023-01-24T03:33:57;9.05;;;3.85;;
55537;SDS011;41383;51.418;7.286;2023-01-24T03:36:41;10.20;;;4.80;;
55537;SDS011;41383;51.418;7.286;2023-01-24T03:39:06;11.18;;;5.55;;
55537;SDS011;41383;51.418;7.286;2023-01-24T03:41:52;12.48;;;4.93;;
55537;SDS011;41383;51.418;7.286;2023-01-24T03:44:18;9.55;;;5.10;;
55537;SDS011;41383;51.418;7.286;2023-01-24T03:46:43;13.52;;;6.72;;
55537;SDS011;41383;51.418;7.286;2023-01-24T03:49:08;11.67;;;4.30;;
55537;SDS011;41383;51.418;7.286;2023-01-24T03:51:34;13.02;;;6.03;;
55537;SDS011;41383;51.418;7.286;2023-01-24T03:54:18;11.55;;;4.78;;
55537;SDS011;41383;51.418;7.286;2023-01-24T03:56:44;8.18;;;4.40;;
55537;SDS011;41383;51.418;7.286;2023-01-24T03:59:09;8.17;;;3.83;;
55537;SDS011;41383;51.418;7.286;2023-01-24T04:01:34;8.48;;;4.65;;
55537;SDS011;41383;51.418;7.286;2023-01-24T04:04:00;9.45;;;5.55;;
55537;SDS011;41383;51.418;7.286;2023-01-24T04:06:25;11.60;;;4.85;;
55537;SDS011;41383;51.418;7.286;2023-01-24T04:08:51;12.07;;;5.95;;
55537;SDS011;41383;51.418;7.286;2023-01-24T04:11:16;11.73;;;5.05;;
55537;SDS011;41383;51.418;7.286;2023-01-24T04:13:42;11.43;;;5.75;;
55537;SDS011;41383;51.418;7.286;2023-01-24T04:16:07;9.02;;;4.88;;
55537;SDS011;41383;51.418;7.286;2023-01-24T04:18:34;11.48;;;5.57;;
55537;SDS011;41383;51.418;7.286;2023-01-24T04:21:01;9.02;;;5.50;;
55537;SDS011;41383;51.418;7.286;2023-01-24T04:23:27;11.52;;;7.35;;
55537;SDS011;41383;51.418;7.286;2023-01-24T04:25:53;10.40;;;5.13;;
55537;SDS011;41383;51.418;7.286;2023-01-24T04:28:21;12.07;;;6.03;;
55537;SDS011;41383;51.418;7.286;2023-01-24T04:30:47;10.35;;;4.40;;
55537;SDS011;41383;51.418;7.286;2023-01-24T04:33:13;11.52;;;5.30;;
55537;SDS011;41383;51.418;7.286;2023-01-24T04:35:38;11.10;;;5.55;;
55537;SDS011;41383;51.418;7.286;2023-01-24T04:38:04;10.25;;;4.60;;
55537;SDS011;41383;51.418;7.286;2023-01-24T04:40:29;9.90;;;5.80;;
55537;SDS011;41383;51.418;7.286;2023-01-24T04:42:55;10.63;;;5.65;;
55537;SDS011;41383;51.418;7.286;2023-01-24T04:45:21;8.88;;;4.57;;
55537;SDS011;41383;51.418;7.286;2023-01-24T04:47:46;13.35;;;5.65;;
55537;SDS011;41383;51.418;7.286;2023-01-24T04:50:12;11.55;;;5.63;;
55537;SDS011;41383;51.418;7.286;2023-01-24T04:52:37;13.33;;;5.57;;
55537;SDS011;41383;51.418;7.286;2023-01-24T04:55:02;14.13;;;6.03;;
55537;SDS011;41383;51.418;7.286;2023-01-24T04:57:28;11.00;;;6.05;;
55537;SDS011;41383;51.418;7.286;2023-01-24T04:59:53;13.27;;;6.45;;
55537;SDS011;41383;51.418;7.286;2023-01-24T05:02:18;11.15;;;5.80;;
55537;SDS011;41383;51.418;7.286;2023-01-24T05:04:44;11.85;;;5.82;;
55537;SDS011;41383;51.418;7.286;2023-01-24T05:07:09;11.90;;;6.35;;
55537;SDS011;41383;51.418;7.286;2023-01-24T05:09:35;11.18;;;5.97;;
55537;SDS011;41383;51.418;7.286;2023-01-24T05:12:00;12.70;;;6.85;;
55537;SDS011;41383;51.418;7.286;2023-01-24T05:14:25;11.00;;;5.95;;
55537;SDS011;41383;51.418;7.286;2023-01-24T05:16:51;12.30;;;6.73;;
55537;SDS011;41383;51.418;7.286;2023-01-24T05:19:16;13.45;;;6.13;;
55537;SDS011;41383;51.418;7.286;2023-01-24T05:21:41;11.18;;;5.68;;
55537;SDS011;41383;51.418;7.286;2023-01-24T05:24:06;11.10;;;6.35;;
55537;SDS011;41383;51.418;7.286;2023-01-24T05:26:32;12.65;;;6.50;;
55537;SDS011;41383;51.418;7.286;2023-01-24T05:28:57;15.77;;;6.25;;
55537;SDS011;41383;51.418;7.286;2023-01-24T05:31:22;16.55;;;8.57;;
55537;SDS011;41383;51.418;7.286;2023-01-24T05:33:48;15.70;;;7.30;;
55537;SDS011;41383;51.418;7.286;2023-01-24T05:36:14;14.80;;;6.45;;
55537;SDS011;41383;51.418;7.286;2023-01-24T05:38:44;14.48;;;6.07;;
55537;SDS011;41383;51.418;7.286;2023-01-24T05:41:11;11.75;;;5.60;;
55537;SDS011;41383;51.418;7.286;2023-01-24T05:43:38;11.35;;;6.97;;
55537;SDS011;41383;51.418;7.286;2023-01-24T05:46:04;10.85;;;5.72;;
55537;SDS011;41383;51.418;7.286;2023-01-24T05:48:31;10.93;;;6.20;;
55537;SDS011;41383;51.418;7.286;2023-01-24T05:50:58;11.10;;;5.85;;
55537;SDS011;41383;51.418;7.286;2023-01-24T05:53:42;10.20;;;5.15;;
55537;SDS011;41383;51.418;7.286;2023-01-24T05:56:13;14.77;;;6.40;;
55537;SDS011;41383;51.418;7.286;2023-01-24T05:58:40;10.23;;;6.22;;
55537;SDS011;41383;51.418;7.286;2023-01-24T06:01:08;13.02;;;6.10;;
55537;SDS011;41383;51.418;7.286;2023-01-24T06:03:38;11.70;;;5.63;;
55537;SDS011;41383;51.418;7.286;2023-01-24T06:06:08;9.45;;;5.38;;
55537;SDS011;41383;51.418;7.286;2023-01-24T06:08:35;12.73;;;6.28;;
55537;SDS011;41383;51.418;7.286;2023-01-24T06:11:04;11.73;;;5.68;;
55537;SDS011;41383;51.418;7.286;2023-01-24T06:13:31;14.20;;;6.05;;
55537;SDS011;41383;51.418;7.286;2023-01-24T06:16:01;12.43;;;6.55;;
55537;SDS011;41383;51.418;7.286;2023-01-24T06:18:27;14.20;;;7.72;;
55537;SDS011;41383;51.418;7.286;2023-01-24T06:20:52;12.48;;;7.10;;
55537;SDS011;41383;51.418;7.286;2023-01-24T06:23:22;11.65;;;6.07;;
55537;SDS011;41383;51.418;7.286;2023-01-24T06:25:49;9.95;;;5.15;;
55537;SDS011;41383;51.418;7.286;2023-01-24T06:28:15;14.10;;;7.30;;
55537;SDS011;41383;51.418;7.286;2023-01-24T06:30:41;10.43;;;5.53;;
55537;SDS011;41383;51.418;7.286;2023-01-24T06:33:25;10.77;;;5.68;;
55537;SDS011;41383;51.418;7.286;2023-01-24T06:38:44;11.80;;;7.25;;
55537;SDS011;41383;51.418;7.286;2023-01-24T06:41:13;14.63;;;6.95;;
55537;SDS011;41383;51.418;7.286;2023-01-24T06:43:41;11.57;;;6.20;;
55537;SDS011;41383;51.418;7.286;2023-01-24T06:46:08;14.77;;;6.35;;
55537;SDS011;41383;51.418;7.286;2023-01-24T06:48:34;12.00;;;6.40;;
55537;SDS011;41383;51.418;7.286;2023-01-24T06:50:59;15.77;;;7.67;;
55537;SDS011;41383;51.418;7.286;2023-01-24T06:53:25;11.00;;;5.00;;
55537;SDS011;41383;51.418;7.286;2023-01-24T06:55:50;13.73;;;8.63;;
55537;SDS011;41383;51.418;7.286;2023-01-24T06:58:15;10.67;;;5.13;;
55537;SDS011;41383;51.418;7.286;2023-01-24T07:00:41;12.88;;;7.38;;
55537;SDS011;41383;51.418;7.286;2023-01-24T07:03:06;14.82;;;7.78;;
55537;SDS011;41383;51.418;7.286;2023-01-24T07:05:33;15.93;;;7.80;;
55537;SDS011;41383;51.418;7.286;2023-01-24T07:07:59;14.23;;;7.80;;
55537;SDS011;41383;51.418;7.286;2023-01-24T07:10:25;13.45;;;7.32;;
55537;SDS011;41383;51.418;7.286;2023-01-24T07:12:50;11.00;;;5.75;;
55537;SDS011;41383;51.418;7.286;2023-01-24T07:15:16;11.77;;;6.22;;
55537;SDS011;41383;51.418;7.286;2023-01-24T07:17:41;12.80;;;6.63;;
55537;SDS011;41383;51.418;7.286;2023-01-24T07:20:07;13.45;;;6.93;;
55537;SDS011;41383;51.418;7.286;2023-01-24T07:22:36;11.35;;;6.43;;
55537;SDS011;41383;51.418;7.286;2023-01-24T07:25:02;12.18;;;6.20;;
55537;SDS011;41383;51.418;7.286;2023-01-24T07:27:27;12.85;;;6.45;;
55537;SDS011;41383;51.418;7.286;2023-01-24T07:29:53;15.68;;;8.25;;
55537;SDS011;41383;51.418;7.286;2023-01-24T07:32:18;11.80;;;5.90;;
55537;SDS011;41383;51.418;7.286;2023-01-24T07:34:43;14.60;;;7.50;;
55537;SDS011;41383;51.418;7.286;2023-01-24T07:37:09;13.00;;;8.02;;
55537;SDS011;41383;51.418;7.286;2023-01-24T07:39:34;10.53;;;6.00;;
55537;SDS011;41383;51.418;7.286;2023-01-24T07:41:59;10.85;;;6.10;;
55537;SDS011;41383;51.418;7.286;2023-01-24T07:44:25;14.75;;;7.85;;
55537;SDS011;41383;51.418;7.286;2023-01-24T07:46:50;11.13;;;5.77;;
55537;SDS011;41383;51.418;7.286;2023-01-24T07:49:15;13.35;;;7.00;;
55537;SDS011;41383;51.418;7.286;2023-01-24T07:51:41;11.10;;;6.10;;
55537;SDS011;41383;51.418;7.286;2023-01-24T07:54:06;10.87;;;6.00;;
55537;SDS011;41383;51.418;7.286;2023-01-24T07:56:32;11.93;;;6.85;;
55537;SDS011;41383;51.418;7.286;2023-01-24T07:58:57;11.75;;;5.70;;
55537;SDS011;41383;51.418;7.286;2023-01-24T08:01:23;12.32;;;6.00;;
55537;SDS011;41383;51.418;7.286;2023-01-24T08:03:50;10.15;;;5.95;;
55537;SDS011;41383;51.418;7.286;2023-01-24T08:06:18;11.95;;;7.30;;
55537;SDS011;41383;51.418;7.286;2023-01-24T08:08:43;11.63;;;6.25;;
55537;SDS011;41383;51.418;7.286;2023-01-24T08:11:08;12.53;;;6.47;;
55537;SDS011;41383;51.418;7.286;2023-01-24T08:13:36;11.32;;;6.93;;
55537;SDS011;41383;51.418;7.286;2023-01-24T08:16:01;9.32;;;4.18;;
55537;SDS011;41383;51.418;7.286;2023-01-24T08:18:27;10.13;;;4.47;;
55537;SDS011;41383;51.418;7.286;2023-01-24T08:20:55;12.35;;;6.85;;
55537;SDS011;41383;51.418;7.286;2023-01-24T08:23:21;13.43;;;6.47;;
55537;SDS011;41383;51.418;7.286;2023-01-24T08:25:46;12.30;;;6.43;;
55537;SDS011;41383;51.418;7.286;2023-01-24T08:28:12;10.23;;;5.50;;
55537;SDS011;41383;51.418;7.286;2023-01-24T08:30:37;9.63;;;5.00;;
55537;SDS011;41383;51.418;7.286;2023-01-24T08:33:03;16.08;;;6.80;;
55537;SDS011;41383;51.418;7.286;2023-01-24T08:35:30;14.73;;;5.70;;
55537;SDS011;41383;51.418;7.286;2023-01-24T08:37:56;14.98;;;6.60;;
55537;SDS011;41383;51.418;7.286;2023-01-24T08:40:21;12.43;;;6.15;;
55537;SDS011;41383;51.418;7.286;2023-01-24T08:42:47;12.68;;;5.80;;
55537;SDS011;41383;51.418;7.286;2023-01-24T08:45:12;11.00;;;5.60;;
55537;SDS011;41383;51.418;7.286;2023-01-24T08:47:37;10.17;;;5.40;;
55537;SDS011;41383;51.418;7.286;2023-01-24T08:50:02;12.40;;;6.57;;
55537;SDS011;41383;51.418;7.286;2023-01-24T08:52:28;11.23;;;5.65;;
55537;SDS011;41383;51.418;7.286;2023-01-24T08:54:53;13.13;;;5.90;;
55537;SDS011;41383;51.418;7.286;2023-01-24T08:57:19;10.55;;;5.95;;
55537;SDS011;41383;51.418;7.286;2023-01-24T08:59:44;11.85;;;6.95;;
55537;SDS011;41383;51.418;7.286;2023-01-24T09:02:11;11.88;;;6.30;;
55537;SDS011;41383;51.418;7.286;2023-01-24T09:04:39;11.90;;;6.50;;
55537;SDS011;41383;51.418;7.286;2023-01-24T09:07:04;14.68;;;6.97;;
55537;SDS011;41383;51.418;7.286;2023-01-24T09:09:29;13.35;;;6.90;;
55537;SDS011;41383;51.418;7.286;2023-01-24T09:11:55;8.98;;;5.95;;
55537;SDS011;41383;51.418;7.286;2023-01-24T09:14:20;11.32;;;6.50;;
55537;SDS011;41383;51.418;7.286;2023-01-24T09:16:45;11.70;;;6.10;;
55537;SDS011;41383;51.418;7.286;2023-01-24T09:19:11;13.32;;;8.05;;
55537;SDS011;41383;51.418;7.286;2023-01-24T09:21:37;10.07;;;6.10;;
55537;SDS011;41383;51.418;7.286;2023-01-24T09:24:03;12.85;;;6.97;;
55537;SDS011;41383;51.418;7.286;2023-01-24T09:26:28;11.05;;;5.65;;
55537;SDS011;41383;51.418;7.286;2023-01-24T09:28:53;10.00;;;5.23;;
55537;SDS011;41383;51.418;7.286;2023-01-24T09:31:20;10.23;;;5.80;;
55537;SDS011;41383;51.418;7.286;2023-01-24T09:33:45;12.45;;;6.53;;
55537;SDS011;41383;51.418;7.286;2023-01-24T09:36:10;16.23;;;8.20;;
55537;SDS011;41383;51.418;7.286;2023-01-24T09:38:36;10.50;;;5.20;;
55537;SDS011;41383;51.418;7.286;2023-01-24T09:44:00;13.93;;;7.68;;
55537;SDS011;41383;51.418;7.286;2023-01-24T09:46:47;12.00;;;7.22;;
55537;SDS011;41383;51.418;7.286;2023-01-24T09:49:16;10.85;;;6.43;;
55537;SDS011;41383;51.418;7.286;2023-01-24T09:51:49;13.93;;;6.78;;
55537;SDS011;41383;51.418;7.286;2023-01-24T09:57:11;13.20;;;7.63;;
55537;SDS011;41383;51.418;7.286;2023-01-24T09:59:47;13.70;;;7.82;;
55537;SDS011;41383;51.418;7.286;2023-01-24T10:02:18;17.33;;;6.75;;
55537;SDS011;41383;51.418;7.286;2023-01-24T10:04:46;14.15;;;7.10;;
55537;SDS011;41383;51.418;7.286;2023-01-24T10:15:18;11.40;;;5.97;;
55537;SDS011;41383;51.418;7.286;2023-01-24T10:20:36;11.75;;;6.28;;
55537;SDS011;41383;51.418;7.286;2023-01-24T10:23:18;13.60;;;7.07;;
55537;SDS011;41383;51.418;7.286;2023-01-24T10:25:58;9.90;;;5.55;;
55537;SDS011;41383;51.418;7.286;2023-01-24T10:28:34;12.23;;;6.18;;
55537;SDS011;41383;51.418;7.286;2023-01-24T10:33:49;14.38;;;8.05;;
55537;SDS011;41383;51.418;7.286;2023-01-24T10:36:33;12.60;;;7.55;;
55537;SDS011;41383;51.418;7.286;2023-01-24T10:39:04;11.38;;;6.53;;
55537;SDS011;41383;51.418;7.286;2023-01-24T10:41:30;14.52;;;7.15;;
55537;SDS011;41383;51.418;7.286;2023-01-24T10:44:01;13.95;;;8.05;;
55537;SDS011;41383;51.418;7.286;2023-01-24T10:49:09;14.18;;;8.00;;
55537;SDS011;41383;51.418;7.286;2023-01-24T10:51:42;12.32;;;6.63;;
55537;SDS011;41383;51.418;7.286;2023-01-24T10:54:10;12.63;;;6.63;;
55537;SDS011;41383;51.418;7.286;2023-01-24T10:56:44;12.95;;;7.13;;
55537;SDS011;41383;51.418;7.286;2023-01-24T10:59:11;14.65;;;7.97;;
55537;SDS011;41383;51.418;7.286;2023-01-24T11:01:43;9.85;;;6.03;;
55537;SDS011;41383;51.418;7.286;2023-01-24T11:06:38;13.70;;;7.27;;
55537;SDS011;41383;51.418;7.286;2023-01-24T11:09:11;12.85;;;6.63;;
55537;SDS011;41383;51.418;7.286;2023-01-24T11:11:40;11.25;;;5.65;;
55537;SDS011;41383;51.418;7.286;2023-01-24T11:14:12;14.77;;;7.10;;
55537;SDS011;41383;51.418;7.286;2023-01-24T11:16:42;11.05;;;6.13;;
55537;SDS011;41383;51.418;7.286;2023-01-24T11:19:44;13.88;;;6.75;;
55537;SDS011;41383;51.418;7.286;2023-01-24T11:24:49;14.23;;;8.23;;
55537;SDS011;41383;51.418;7.286;2023-01-24T11:27:16;14.25;;;7.30;;
55537;SDS011;41383;51.418;7.286;2023-01-24T11:29:43;12.23;;;7.30;;
55537;SDS011;41383;51.418;7.286;2023-01-24T11:37:39;12.98;;;7.20;;
55537;SDS011;41383;51.418;7.286;2023-01-24T11:40:35;23.05;;;10.20;;
55537;SDS011;41383;51.418;7.286;2023-01-24T11:48:34;16.35;;;7.13;;
55537;SDS011;41383;51.418;7.286;2023-01-24T11:51:09;10.70;;;5.70;;
55537;SDS011;41383;51.418;7.286;2023-01-24T12:02:00;11.18;;;6.47;;
55537;SDS011;41383;51.418;7.286;2023-01-24T12:04:50;11.20;;;5.78;;
55537;SDS011;41383;51.418;7.286;2023-01-24T12:10:37;14.13;;;7.32;;
55537;SDS011;41383;51.418;7.286;2023-01-24T12:18:31;12.45;;;6.30;;
55537;SDS011;41383;51.418;7.286;2023-01-24T12:21:09;11.68;;;6.20;;
55537;SDS011;41383;51.418;7.286;2023-01-24T12:26:12;17.85;;;7.82;;
55537;SDS011;41383;51.418;7.286;2023-01-24T12:28:48;14.80;;;7.00;;
55537;SDS011;41383;51.418;7.286;2023-01-24T12:31:38;14.75;;;6.63;;
55537;SDS011;41383;51.418;7.286;2023-01-24T12:37:20;12.15;;;6.95;;
55537;SDS011;41383;51.418;7.286;2023-01-24T12:48:26;11.80;;;6.18;;
55537;SDS011;41383;51.418;7.286;2023-01-24T12:51:19;11.45;;;6.07;;
55537;SDS011;41383;51.418;7.286;2023-01-24T12:53:57;11.10;;;6.57;;
55537;SDS011;41383;51.418;7.286;2023-01-24T12:59:32;14.23;;;7.20;;
55537;SDS011;41383;51.418;7.286;2023-01-24T13:02:16;13.15;;;6.72;;
55537;SDS011;41383;51.418;7.286;2023-01-24T13:11:05;9.40;;;4.93;;
55537;SDS011;41383;51.418;7.286;2023-01-24T13:13:44;11.10;;;6.63;;
55537;SDS011;41383;51.418;7.286;2023-01-24T13:32:53;13.68;;;5.65;;
55537;SDS011;41383;51.418;7.286;2023-01-24T13:35:22;10.95;;;6.65;;
55537;SDS011;41383;51.418;7.286;2023-01-24T13:37:50;9.45;;;4.82;;
55537;SDS011;41383;51.418;7.286;2023-01-24T13:40:21;11.25;;;6.75;;
55537;SDS011;41383;51.418;7.286;2023-01-24T13:42:56;13.95;;;5.97;;
55537;SDS011;41383;51.418;7.286;2023-01-24T13:47:48;12.90;;;6.40;;
55537;SDS011;41383;51.418;7.286;2023-01-24T13:50:14;12.77;;;6.60;;
55537;SDS011;41383;51.418;7.286;2023-01-24T13:52:45;12.50;;;6.60;;
55537;SDS011;41383;51.418;7.286;2023-01-24T13:57:47;10.20;;;5.20;;
55537;SDS011;41383;51.418;7.286;2023-01-24T14:00:15;10.23;;;5.88;;
55537;SDS011;41383;51.418;7.286;2023-01-24T14:07:57;9.80;;;4.88;;
55537;SDS011;41383;51.418;7.286;2023-01-24T14:10:35;11.32;;;6.13;;
55537;SDS011;41383;51.418;7.286;2023-01-24T14:13:02;10.68;;;5.22;;
55537;SDS011;41383;51.418;7.286;2023-01-24T14:15:28;12.38;;;6.18;;
55537;SDS011;41383;51.418;7.286;2023-01-24T14:18:02;11.20;;;5.63;;
55537;SDS011;41383;51.418;7.286;2023-01-24T14:20:34;11.73;;;6.05;;
55537;SDS011;41383;51.418;7.286;2023-01-24T14:23:04;14.13;;;6.75;;
55537;SDS011;41383;51.418;7.286;2023-01-24T14:25:40;10.18;;;6.07;;
55537;SDS011;41383;51.418;7.286;2023-01-24T14:30:56;14.60;;;6.78;;
55537;SDS011;41383;51.418;7.286;2023-01-24T14:33:29;10.25;;;5.63;;
55537;SDS011;41383;51.418;7.286;2023-01-24T14:36:19;11.20;;;5.82;;
55537;SDS011;41383;51.418;7.286;2023-01-24T14:38:45;14.15;;;6.18;;
55537;SDS011;41383;51.418;7.286;2023-01-24T14:41:19;11.15;;;6.05;;
55537;SDS011;41383;51.418;7.286;2023-01-24T14:43:46;12.25;;;5.88;;
55537;SDS011;41383;51.418;7.286;2023-01-24T14:46:12;12.73;;;6.13;;
55537;SDS011;41383;51.418;7.286;2023-01-24T14:48:45;14.77;;;8.07;;
55537;SDS011;41383;51.418;7.286;2023-01-24T14:51:13;8.07;;;4.60;;
55537;SDS011;41383;51.418;7.286;2023-01-24T14:53:45;12.05;;;5.43;;
55537;SDS011;41383;51.418;7.286;2023-01-24T14:56:12;10.45;;;5.18;;
55537;SDS011;41383;51.418;7.286;2023-01-24T14:58:39;11.60;;;6.95;;
55537;SDS011;41383;51.418;7.286;2023-01-24T15:01:19;10.13;;;5.57;;
55537;SDS011;41383;51.418;7.286;2023-01-24T15:03:47;11.50;;;5.88;;
55537;SDS011;41383;51.418;7.286;2023-01-24T15:06:16;9.73;;;5.20;;
55537;SDS011;41383;51.418;7.286;2023-01-24T15:08:43;11.73;;;6.43;;
55537;SDS011;41383;51.418;7.286;2023-01-24T15:11:23;11.70;;;6.10;;
55537;SDS011;41383;51.418;7.286;2023-01-24T15:16:22;10.35;;;6.18;;
55537;SDS011;41383;51.418;7.286;2023-01-24T15:19:02;12.02;;;6.57;;
55537;SDS011;41383;51.418;7.286;2023-01-24T15:23:55;19.10;;;10.97;;
55537;SDS011;41383;51.418;7.286;2023-01-24T15:28:53;10.90;;;5.53;;
55537;SDS011;41383;51.418;7.286;2023-01-24T15:31:19;10.77;;;5.30;;
55537;SDS011;41383;51.418;7.286;2023-01-24T15:33:47;11.38;;;6.82;;
55537;SDS011;41383;51.418;7.286;2023-01-24T15:36:26;13.32;;;7.20;;
55537;SDS011;41383;51.418;7.286;2023-01-24T15:38:54;10.48;;;6.97;;
55537;SDS011;41383;51.418;7.286;2023-01-24T15:41:26;17.75;;;8.18;;
55537;SDS011;41383;51.418;7.286;2023-01-24T15:44:12;14.00;;;6.93;;
55537;SDS011;41383;51.418;7.286;2023-01-24T15:46:42;12.60;;;6.20;;
55537;SDS011;41383;51.418;7.286;2023-01-24T15:49:38;14.98;;;7.32;;
55537;SDS011;41383;51.418;7.286;2023-01-24T15:54:33;12.63;;;6.60;;
55537;SDS011;41383;51.418;7.286;2023-01-24T15:57:06;10.45;;;6.82;;
55537;SDS011;41383;51.418;7.286;2023-01-24T15:59:43;13.13;;;6.93;;
55537;SDS011;41383;51.418;7.286;2023-01-24T16:02:14;13.88;;;7.60;;
55537;SDS011;41383;51.418;7.286;2023-01-24T16:04:40;15.45;;;9.95;;
55537;SDS011;41383;51.418;7.286;2023-01-24T16:07:05;12.48;;;8.68;;
55537;SDS011;41383;51.418;7.286;2023-01-24T16:09:31;12.57;;;6.80;;
55537;SDS011;41383;51.418;7.286;2023-01-24T16:11:57;11.32;;;6.78;;
55537;SDS011;41383;51.418;7.286;2023-01-24T16:14:24;9.82;;;6.85;;
55537;SDS011;41383;51.418;7.286;2023-01-24T16:16:51;13.25;;;7.38;;
55537;SDS011;41383;51.418;7.286;2023-01-24T16:19:19;13.52;;;7.43;;
55537;SDS011;41383;51.418;7.286;2023-01-24T16:21:46;15.57;;;9.32;;
55537;SDS011;41383;51.418;7.286;2023-01-24T16:24:12;19.70;;;11.00;;
55537;SDS011;41383;51.418;7.286;2023-01-24T16:26:38;31.65;;;18.98;;
55537;SDS011;41383;51.418;7.286;2023-01-24T16:29:12;23.30;;;12.70;;
55537;SDS011;41383;51.418;7.286;2023-01-24T16:31:40;15.57;;;8.90;;
55537;SDS011;41383;51.418;7.286;2023-01-24T16:34:09;14.70;;;10.10;;
55537;SDS011;41383;51.418;7.286;2023-01-24T16:36:34;13.32;;;8.45;;
55537;SDS011;41383;51.418;7.286;2023-01-24T16:39:00;13.75;;;8.35;;
55537;SDS011;41383;51.418;7.286;2023-01-24T16:41:26;15.00;;;7.43;;
55537;SDS011;41383;51.418;7.286;2023-01-24T16:43:51;14.90;;;8.95;;
55537;SDS011;41383;51.418;7.286;2023-01-24T16:46:17;17.60;;;8.50;;
55537;SDS011;41383;51.418;7.286;2023-01-24T16:48:44;14.27;;;7.85;;